Time;durP1;ratioP1;P1;durP2;ratioP2;P2;SDS_P1;SDS_P2;PMS_P1;PMS_P2;Temp;Humidity;BMP_temperature;BMP_pressure;BME280_temperature;BME280_humidity;BME280_pressure;Samples;Min_cycle;Max_cycle;Signal;HPM_P1;HPM_P2
2023/04/28 00:00:06;;;;;;;7.00;3.53;;;;;;;11.82;100.00;100731.84;6255017;23;20012;-87
2023/04/28 00:02:33;;;;;;;8.82;3.67;;;;;;;11.99;100.00;100731.84;6262118;22;20020;-86
2023/04/28 00:04:58;;;;;;;5.72;3.28;;;;;;;11.91;100.00;100730.03;6264699;23;20008;-87
2023/04/28 00:07:26;;;;;;;4.68;3.20;;;;;;;11.69;100.00;100718.19;6279263;22;20083;-83
2023/04/28 00:09:51;;;;;;;6.25;3.20;;;;;;;11.71;100.00;100721.53;6251619;23;20004;-87
2023/04/28 00:12:55;;;;;;;7.65;3.67;;;;;;;11.76;100.00;100729.88;6254308;22;20012;-86
2023/04/28 00:15:20;;;;;;;5.68;3.30;;;;;;;11.82;100.00;100734.50;6256393;22;20028;-86
2023/04/28 00:17:46;;;;;;;6.85;3.88;;;;;;;11.75;100.00;100724.69;6227184;22;20047;-84
2023/04/28 00:20:11;;;;;;;8.90;3.58;;;;;;;11.91;100.00;100725.53;6224760;23;20010;-86
2023/04/28 00:22:37;;;;;;;8.10;2.92;;;;;;;11.92;100.00;100718.41;6251059;23;20015;-86
2023/04/28 00:25:03;;;;;;;4.97;3.28;;;;;;;11.74;100.00;100718.56;6249118;23;20150;-86
2023/04/28 00:27:29;;;;;;;7.00;3.50;;;;;;;11.71;100.00;100710.91;6247877;23;20013;-86
2023/04/28 00:29:54;;;;;;;8.20;3.35;;;;;;;11.89;100.00;100724.88;6249064;23;20016;-85
2023/04/28 00:32:20;;;;;;;5.43;3.55;;;;;;;11.89;100.00;100724.88;6221657;23;20013;-86
2023/04/28 00:34:46;;;;;;;5.97;3.20;;;;;;;11.78;100.00;100722.53;6248641;23;20007;-86
2023/04/28 00:37:11;;;;;;;5.15;3.47;;;;;;;11.47;100.00;100724.13;6222206;23;20030;-84
2023/04/28 00:39:37;;;;;;;7.35;3.15;;;;;;;11.30;100.00;100717.13;6250083;23;20044;-85
2023/04/28 00:42:03;;;;;;;6.75;3.53;;;;;;;11.15;100.00;100724.88;6249802;23;20427;-86
2023/04/28 00:44:29;;;;;;;4.95;3.20;;;;;;;11.26;100.00;100719.28;6249361;23;20071;-84
2023/04/28 00:46:56;;;;;;;5.75;3.20;;;;;;;11.19;100.00;100720.06;6248559;23;20016;-83
2023/04/28 00:49:22;;;;;;;9.80;3.63;;;;;;;11.13;100.00;100715.41;6249676;23;20085;-84
2023/04/28 00:51:47;;;;;;;6.18;2.92;;;;;;;11.28;100.00;100714.63;6249233;23;20378;-85
2023/04/28 00:54:13;;;;;;;9.38;2.95;;;;;;;11.34;100.00;100723.75;6250046;23;20019;-84
2023/04/28 00:56:39;;;;;;;5.75;3.30;;;;;;;11.25;100.00;100724.72;6248567;23;20136;-83
2023/04/28 00:59:04;;;;;;;5.35;3.63;;;;;;;11.26;100.00;100726.41;6250210;23;20008;-83
2023/04/28 01:01:31;;;;;;;7.10;3.45;;;;;;;11.44;100.00;100721.78;6222942;23;20019;-84
2023/04/28 01:03:59;;;;;;;7.07;3.03;;;;;;;11.58;100.00;100721.16;6250259;23;20016;-85
2023/04/28 01:06:27;;;;;;;6.97;3.25;;;;;;;11.72;100.00;100728.53;6222985;23;20026;-84
2023/04/28 01:08:54;;;;;;;9.40;2.70;;;;;;;11.43;100.00;100730.78;6222512;23;20014;-84
2023/04/28 01:11:21;;;;;;;5.25;2.97;;;;;;;11.33;100.00;100727.44;6223591;23;20095;-84
2023/04/28 01:13:52;;;;;;;4.32;2.92;;;;;;;11.21;100.00;100728.69;6250240;23;20015;-84
2023/04/28 01:16:18;;;;;;;4.43;2.65;;;;;;;10.95;100.00;100731.41;6222632;23;20012;-84
2023/04/28 01:18:46;;;;;;;5.80;3.05;;;;;;;10.96;100.00;100733.09;6192893;23;20028;-83
2023/04/28 01:21:13;;;;;;;6.72;2.58;;;;;;;10.90;100.00;100731.88;6191721;23;20007;-85
2023/04/28 01:23:38;;;;;;;9.63;3.40;;;;;;;10.73;100.00;100727.53;6217240;23;20016;-84
2023/04/28 01:26:04;;;;;;;11.30;2.85;;;;;;;10.60;100.00;100727.13;6242602;23;20396;-86
2023/04/28 01:28:30;;;;;;;5.45;2.97;;;;;;;10.49;100.00;100722.06;6192644;23;20015;-86
2023/04/28 01:30:56;;;;;;;6.05;3.15;;;;;;;10.49;100.00;100730.03;6191864;23;20005;-85
2023/04/28 01:33:22;;;;;;;10.82;3.30;;;;;;;10.40;100.00;100730.13;6192414;23;20355;-86
2023/04/28 01:35:47;;;;;;;5.25;3.10;;;;;;;10.53;100.00;100731.38;6219034;23;20068;-85
2023/04/28 01:38:13;;;;;;;7.72;2.83;;;;;;;10.36;100.00;100733.09;6218719;23;20017;-86
2023/04/28 01:40:38;;;;;;;7.75;3.25;;;;;;;10.37;100.00;100733.94;6192795;23;20027;-89
2023/04/28 01:43:04;;;;;;;8.38;3.42;;;;;;;10.41;100.00;100737.09;6193256;23;20452;-86
2023/04/28 01:45:29;;;;;;;4.22;3.03;;;;;;;10.50;100.00;100730.88;6196224;23;20013;-84
2023/04/28 01:47:55;;;;;;;6.55;3.28;;;;;;;10.43;100.00;100743.06;6195435;23;20017;-86
2023/04/28 01:50:41;;;;;;;6.30;3.33;;;;;;;10.51;100.00;100730.69;6229307;23;20035;-87
2023/04/28 01:54:21;;;;;;;7.18;2.72;;;;;;;10.81;100.00;100748.75;6237939;23;20048;-86
2023/04/28 01:57:06;;;;;;;7.93;2.70;;;;;;;10.95;100.00;100746.50;6225665;23;20090;-87
2023/04/28 01:59:31;;;;;;;4.88;2.55;;;;;;;11.11;100.00;100741.25;6193783;23;20412;-83
2023/04/28 02:01:57;;;;;;;8.38;2.80;;;;;;;11.09;100.00;100743.25;6179988;23;20027;-84
2023/04/28 02:04:23;;;;;;;3.58;2.20;;;;;;;11.15;100.00;100745.25;6234159;23;20028;-84
2023/04/28 02:06:49;;;;;;;2.97;2.30;;;;;;;10.98;100.00;100752.31;6234329;23;20028;-84
2023/04/28 02:09:14;;;;;;;4.30;2.15;;;;;;;11.17;100.00;100753.91;6210017;23;20068;-84
2023/04/28 02:11:40;;;;;;;7.20;3.08;;;;;;;10.99;100.00;100745.19;6210530;23;20047;-84
2023/04/28 02:14:06;;;;;;;9.50;3.00;;;;;;;11.00;100.00;100744.22;6233849;23;20009;-84
2023/04/28 02:16:32;;;;;;;3.83;2.40;;;;;;;10.67;100.00;100736.06;6207759;23;20044;-84
2023/04/28 02:18:57;;;;;;;4.13;2.50;;;;;;;10.36;100.00;100729.63;6259540;23;20300;-89
2023/04/28 02:21:28;;;;;;;6.47;2.67;;;;;;;10.20;100.00;100732.16;6229079;23;20030;-85
2023/04/28 02:24:12;;;;;;;10.70;2.60;;;;;;;10.01;100.00;100727.81;6258276;23;20015;-86
2023/04/28 02:26:38;;;;;;;6.47;2.90;;;;;;;10.04;100.00;100726.69;6266356;23;20339;-85
2023/04/28 02:29:03;;;;;;;9.13;3.45;;;;;;;10.06;100.00;100735.31;6240249;23;20003;-82
2023/04/28 02:31:31;;;;;;;3.58;2.75;;;;;;;10.03;100.00;100730.31;6264761;23;20011;-83
2023/04/28 02:33:57;;;;;;;8.23;2.92;;;;;;;10.14;100.00;100738.06;6228490;23;20012;-86
2023/04/28 02:36:23;;;;;;;5.28;2.95;;;;;;;10.32;100.00;100741.50;6231549;23;20016;-85
2023/04/28 02:38:48;;;;;;;14.30;3.88;;;;;;;10.18;100.00;100747.34;6255743;23;20000;-86
2023/04/28 02:41:14;;;;;;;5.70;3.22;;;;;;;10.00;100.00;100749.16;6250495;23;20035;-88
2023/04/28 02:43:40;;;;;;;6.80;3.03;;;;;;;10.19;100.00;100749.03;6223816;23;20013;-87
2023/04/28 02:46:06;;;;;;;5.72;2.95;;;;;;;10.14;100.00;100741.53;6230019;23;20019;-87
2023/04/28 02:48:34;;;;;;;5.78;2.90;;;;;;;10.56;100.00;100746.97;6259909;23;20019;-85
2023/04/28 02:51:00;;;;;;;8.63;3.17;;;;;;;10.65;100.00;100743.38;6259318;23;20034;-85
2023/04/28 02:53:25;;;;;;;5.72;2.70;;;;;;;10.81;100.00;100747.91;6232279;23;20008;-85
2023/04/28 02:55:51;;;;;;;7.05;2.70;;;;;;;10.63;100.00;100755.13;6235356;23;20008;-88
2023/04/28 02:58:17;;;;;;;6.88;2.20;;;;;;;10.65;100.00;100758.44;6259445;23;20038;-86
2023/04/28 03:00:42;;;;;;;4.60;2.40;;;;;;;10.55;100.00;100761.19;6260089;23;20015;-87
2023/04/28 03:03:08;;;;;;;6.50;2.72;;;;;;;10.49;100.00;100768.94;6233766;23;20016;-85
2023/04/28 03:05:34;;;;;;;4.35;2.60;;;;;;;10.46;100.00;100766.59;6240574;23;20012;-83
2023/04/28 03:08:00;;;;;;;4.60;2.60;;;;;;;10.59;100.00;100770.50;6267262;23;20016;-83
2023/04/28 03:10:27;;;;;;;6.07;2.47;;;;;;;10.76;100.00;100782.88;6240342;23;20039;-82
2023/04/28 03:12:52;;;;;;;7.13;2.63;;;;;;;10.72;100.00;100780.69;6267075;23;20000;-83
2023/04/28 03:15:18;;;;;;;6.68;2.58;;;;;;;10.67;100.00;100786.44;6266673;23;20036;-83
2023/04/28 03:17:44;;;;;;;11.23;3.05;;;;;;;10.43;100.00;100781.00;6239822;23;20235;-83
2023/04/28 03:20:10;;;;;;;7.45;2.65;;;;;;;10.23;100.00;100783.00;6266621;23;20008;-85
2023/04/28 03:22:36;;;;;;;5.15;2.58;;;;;;;10.13;100.00;100774.28;6236004;23;20012;-83
2023/04/28 03:25:02;;;;;;;7.57;2.83;;;;;;;10.27;100.00;100771.09;6235314;23;20083;-83
2023/04/28 03:27:31;;;;;;;7.80;2.92;;;;;;;10.34;100.00;100774.78;6235176;23;20447;-83
2023/04/28 03:30:00;;;;;;;4.68;2.45;;;;;;;10.41;100.00;100775.00;6226195;23;20123;-86
2023/04/28 03:32:25;;;;;;;5.70;2.70;;;;;;;10.22;100.00;100770.75;6262119;23;20008;-85
2023/04/28 03:34:51;;;;;;;10.38;2.65;;;;;;;10.00;100.00;100767.72;6229537;23;20019;-84
2023/04/28 03:37:16;;;;;;;8.73;2.80;;;;;;;9.93;100.00;100769.28;6223281;23;20069;-85
2023/04/28 03:39:43;;;;;;;8.25;2.70;;;;;;;9.88;100.00;100756.50;6248419;23;20008;-86
2023/04/28 03:42:09;;;;;;;9.05;2.58;;;;;;;9.62;100.00;100748.50;6221066;23;20012;-87
2023/04/28 03:45:07;;;;;;;12.50;3.55;;;;;;;9.39;100.00;100746.41;6233227;23;20016;-87
2023/04/28 03:47:33;;;;;;;7.15;2.88;;;;;;;9.28;100.00;100742.16;6221473;23;20132;-89
2023/04/28 03:49:58;;;;;;;5.72;2.78;;;;;;;9.26;100.00;100744.13;6248369;23;20051;-87
2023/04/28 03:52:25;;;;;;;3.95;2.90;;;;;;;9.57;100.00;100744.63;6247766;23;20008;-88
2023/04/28 03:54:50;;;;;;;13.93;3.20;;;;;;;9.64;100.00;100735.97;6220499;23;20043;-87
2023/04/28 03:57:17;;;;;;;7.78;2.92;;;;;;;9.78;100.00;100731.91;6221539;23;20012;-85
2023/04/28 03:59:43;;;;;;;5.53;2.40;;;;;;;9.98;100.00;100732.59;6252354;23;20008;-86
2023/04/28 04:02:09;;;;;;;9.38;3.10;;;;;;;9.91;100.00;100739.50;6221416;23;20060;-84
2023/04/28 04:04:35;;;;;;;8.85;3.17;;;;;;;9.69;100.00;100744.25;6220904;23;20067;-85
2023/04/28 04:07:01;;;;;;;8.73;2.95;;;;;;;9.84;100.00;100749.88;6247397;23;20383;-87
2023/04/28 04:09:27;;;;;;;7.72;3.03;;;;;;;9.96;100.00;100759.22;6220092;23;20015;-85
2023/04/28 04:11:53;;;;;;;9.68;3.72;;;;;;;10.03;100.00;100765.59;6247280;23;20004;-84
2023/04/28 04:14:18;;;;;;;6.93;2.88;;;;;;;9.98;100.00;100762.53;6221644;23;20004;-86
2023/04/28 04:16:46;;;;;;;25.20;4.05;;;;;;;10.10;100.00;100768.47;6219361;23;20073;-86
2023/04/28 04:19:12;;;;;;;13.20;3.50;;;;;;;10.14;100.00;100769.84;6219385;23;20004;-83
2023/04/28 04:21:40;;;;;;;20.90;3.78;;;;;;;10.05;100.00;100773.38;6220675;23;20012;-86
2023/04/28 04:24:06;;;;;;;13.43;2.85;;;;;;;9.91;100.00;100777.38;6220376;23;20012;-87
2023/04/28 04:26:32;;;;;;;8.10;3.40;;;;;;;9.94;100.00;100784.19;6220863;23;20034;-86
2023/04/28 04:28:58;;;;;;;7.97;2.65;;;;;;;10.08;100.00;100775.69;6220480;23;20020;-86
2023/04/28 04:31:23;;;;;;;7.47;2.50;;;;;;;10.07;100.00;100766.94;6247416;23;20012;-85
2023/04/28 04:33:50;;;;;;;9.68;2.72;;;;;;;10.33;100.00;100780.25;6222478;23;20035;-87
2023/04/28 04:36:18;;;;;;;6.70;2.15;;;;;;;10.20;100.00;100788.59;6220908;23;20032;-86
2023/04/28 04:38:44;;;;;;;7.85;2.80;;;;;;;10.11;100.00;100786.00;6247898;23;20038;-88
2023/04/28 04:41:20;;;;;;;7.82;3.13;;;;;;;9.94;100.00;100789.50;6220538;23;20016;-84
2023/04/28 04:43:47;;;;;;;5.25;2.70;;;;;;;9.93;100.00;100793.13;6221649;23;20031;-85
2023/04/28 04:46:13;;;;;;;6.50;2.63;;;;;;;9.95;100.00;100809.69;6219699;23;20436;-84
2023/04/28 04:48:39;;;;;;;8.05;2.95;;;;;;;9.92;100.00;100817.91;6219498;23;20008;-83
2023/04/28 04:51:04;;;;;;;7.13;2.60;;;;;;;9.88;100.00;100806.00;6212824;23;20078;-83
2023/04/28 04:53:30;;;;;;;7.68;2.88;;;;;;;10.04;100.00;100816.72;6220550;23;20012;-85
2023/04/28 04:55:56;;;;;;;12.73;3.88;;;;;;;10.17;100.00;100818.06;6219684;23;20000;-83
2023/04/28 04:58:22;;;;;;;4.93;2.85;;;;;;;10.48;100.00;100825.56;6219776;23;20004;-85
2023/04/28 05:01:08;;;;;;;9.35;3.38;;;;;;;10.63;100.00;100824.03;6219699;23;20012;-84
2023/04/28 05:03:33;;;;;;;17.60;3.20;;;;;;;10.71;100.00;100819.63;6220876;23;20439;-85
2023/04/28 05:05:59;;;;;;;9.32;3.15;;;;;;;10.26;100.00;100826.88;6221649;23;20011;-85
2023/04/28 05:08:41;;;;;;;;;;;;;;;10.18;100.00;100816.22;6248279;23;20065;-86
2023/04/28 05:11:07;;;;;;;13.45;2.90;;;;;;;10.33;100.00;100812.06;6221381;23;19911;-84
2023/04/28 05:13:32;;;;;;;12.98;3.50;;;;;;;10.38;100.00;100813.25;6220373;23;20017;-88
2023/04/28 05:16:01;;;;;;;10.40;3.08;;;;;;;10.19;100.00;100807.28;6221178;23;20009;-86
2023/04/28 05:18:47;;;;;;;6.93;3.13;;;;;;;10.44;100.00;100813.63;6245949;23;20435;-84
2023/04/28 05:21:13;;;;;;;9.50;3.42;;;;;;;10.74;100.00;100806.03;6221376;23;20035;-84
2023/04/28 05:23:40;;;;;;;7.43;3.20;;;;;;;11.13;100.00;100818.88;6249061;23;20045;-83
2023/04/28 05:26:06;;;;;;;5.65;3.00;;;;;;;11.46;100.00;100809.22;6221854;23;20004;-85
2023/04/28 05:28:32;;;;;;;7.60;3.10;;;;;;;11.69;100.00;100812.94;6248026;23;20446;-85
2023/04/28 05:31:00;;;;;;;9.20;3.10;;;;;;;11.76;100.00;100812.19;6221569;23;20016;-87
2023/04/28 05:33:26;;;;;;;6.70;4.00;;;;;;;12.19;100.00;100810.25;6248970;23;20020;-86
2023/04/28 05:35:52;;;;;;;10.18;4.10;;;;;;;12.52;100.00;100819.88;6224940;23;20062;-86
2023/04/28 05:38:17;;;;;;;10.43;3.75;;;;;;;13.15;100.00;100816.44;6225860;23;20012;-90
2023/04/28 05:40:47;;;;;;;9.38;3.53;;;;;;;13.66;92.40;100812.38;6254918;23;20487;-90
2023/04/28 05:43:13;;;;;;;10.48;3.95;;;;;;;13.82;90.96;100813.13;6225271;23;20012;-90
2023/04/28 05:45:38;;;;;;;15.30;4.65;;;;;;;14.21;86.96;100807.72;6221487;23;20019;-86
2023/04/28 05:48:05;;;;;;;9.70;4.30;;;;;;;13.94;89.14;100808.22;6248986;23;20026;-83
2023/04/28 05:50:31;;;;;;;15.73;4.75;;;;;;;13.99;87.69;100803.19;6247076;23;20313;-85
2023/04/28 05:53:00;;;;;;;7.47;4.10;;;;;;;15.11;80.19;100813.03;6219944;23;20079;-86
2023/04/28 05:55:26;;;;;;;8.50;4.22;;;;;;;15.36;75.98;100799.22;6220972;23;20388;-86
2023/04/28 05:57:52;;;;;;;7.68;4.03;;;;;;;15.45;78.38;100802.59;6220750;23;20024;-86
2023/04/28 06:00:18;;;;;;;15.45;3.85;;;;;;;14.99;78.75;100808.16;6220871;23;20008;-85
2023/04/28 06:02:44;;;;;;;11.73;3.72;;;;;;;14.79;80.47;100808.88;6195553;23;20019;-85
2023/04/28 06:05:10;;;;;;;11.68;3.63;;;;;;;15.05;78.66;100813.78;6197047;23;20032;-84
2023/04/28 06:07:35;;;;;;;10.57;3.72;;;;;;;14.88;79.75;100818.47;6222387;23;20062;-82
2023/04/28 06:10:01;;;;;;;13.73;3.58;;;;;;;14.55;82.26;100812.59;6249833;23;20442;-83
2023/04/28 06:12:26;;;;;;;7.72;3.20;;;;;;;13.80;89.95;100803.66;6223237;23;20008;-83
2023/04/28 06:14:54;;;;;;;15.55;3.88;;;;;;;13.48;94.31;100807.34;6222618;23;20016;-88
2023/04/28 06:17:23;;;;;;;14.40;3.90;;;;;;;13.41;94.55;100809.84;6200238;23;20012;-81
2023/04/28 06:19:53;;;;;;;11.77;3.80;;;;;;;13.28;95.51;100817.56;6221943;23;20066;-84
2023/04/28 06:22:19;;;;;;;12.27;3.10;;;;;;;13.49;98.25;100816.16;6222508;23;20042;-81
2023/04/28 06:24:46;;;;;;;16.20;4.47;;;;;;;14.37;90.91;100822.75;6248874;23;20035;-86
2023/04/28 06:27:18;;;;;;;14.68;3.60;;;;;;;14.86;86.79;100823.97;6222495;23;20343;-84
2023/04/28 06:29:44;;;;;;;14.00;3.40;;;;;;;15.43;80.73;100823.34;6246906;23;20005;-88
2023/04/28 06:32:10;;;;;;;12.40;3.55;;;;;;;15.42;78.57;100827.00;6247458;23;20015;-85
2023/04/28 06:34:37;;;;;;;7.93;4.45;;;;;;;15.64;75.55;100827.94;6220942;23;20011;-88
2023/04/28 06:37:02;;;;;;;12.05;4.45;;;;;;;16.49;71.28;100828.81;6221111;23;20008;-85
2023/04/28 06:39:29;;;;;;;12.60;4.05;;;;;;;17.04;68.08;100828.84;6221837;23;20091;-86
2023/04/28 06:41:54;;;;;;;10.82;3.45;;;;;;;17.31;67.06;100839.72;6248808;23;20008;-88
2023/04/28 06:44:22;;;;;;;10.15;4.40;;;;;;;18.65;61.31;100839.72;6221529;23;20008;-87
2023/04/28 06:46:48;;;;;;;13.70;4.50;;;;;;;19.45;54.81;100844.78;6249680;23;20016;-87
2023/04/28 06:49:13;;;;;;;7.63;3.70;;;;;;;19.40;55.71;100855.34;6232876;23;20012;-84
2023/04/28 06:51:39;;;;;;;10.68;4.10;;;;;;;19.42;56.58;100852.44;6259135;23;20440;-90
2023/04/28 06:54:04;;;;;;;8.00;4.28;;;;;;;18.98;57.66;100850.44;6250905;23;20438;-85
2023/04/28 06:56:30;;;;;;;8.95;3.90;;;;;;;18.65;59.62;100845.09;6227227;23;20039;-87
2023/04/28 06:58:56;;;;;;;6.68;4.18;;;;;;;18.28;61.83;100851.00;6258540;23;20034;-85
2023/04/28 07:01:22;;;;;;;13.98;4.68;;;;;;;18.37;63.84;100855.97;6236784;23;20015;-84
2023/04/28 07:03:47;;;;;;;9.25;3.83;;;;;;;18.77;62.36;100862.22;6264184;23;20048;-83
2023/04/28 07:06:16;;;;;;;7.38;4.07;;;;;;;18.69;63.72;100854.41;6264467;23;20004;-88
2023/04/28 07:08:42;;;;;;;13.07;4.13;;;;;;;19.19;63.83;100854.75;6251770;23;20083;-89
2023/04/28 07:11:08;;;;;;;9.88;4.78;;;;;;;18.54;65.78;100849.22;6251581;23;20016;-91
2023/04/28 07:13:34;;;;;;;11.38;4.82;;;;;;;18.10;69.79;100840.88;6249233;23;20061;-84
2023/04/28 07:16:00;;;;;;;7.97;4.63;;;;;;;18.03;69.26;100851.56;6221894;23;20008;-89
2023/04/28 07:18:25;;;;;;;11.27;4.95;;;;;;;18.53;68.97;100844.03;6249217;23;20019;-88
2023/04/28 07:20:51;;;;;;;11.63;5.45;;;;;;;18.58;69.15;100844.28;6247614;23;20004;-85
2023/04/28 07:23:16;;;;;;;12.75;5.65;;;;;;;19.04;67.28;100853.13;6247968;23;20008;-89
2023/04/28 07:25:43;;;;;;;9.55;4.90;;;;;;;19.40;63.21;100860.72;6247597;23;20008;-90
2023/04/28 07:28:08;;;;;;;10.93;5.57;;;;;;;20.04;59.96;100868.72;6247970;23;20019;-89
2023/04/28 07:30:35;;;;;;;10.52;5.18;;;;;;;20.07;59.37;100870.16;6247392;23;20023;-85
2023/04/28 07:33:01;;;;;;;10.30;5.15;;;;;;;20.29;59.24;100870.66;6247760;23;20005;-88
2023/04/28 07:35:27;;;;;;;11.02;4.55;;;;;;;20.40;57.74;100878.06;6221168;23;20008;-87
2023/04/28 07:37:53;;;;;;;8.85;5.25;;;;;;;21.22;53.26;100871.59;6247295;23;20014;-86
2023/04/28 07:40:20;;;;;;;11.98;5.03;;;;;;;19.47;59.61;100869.59;6250100;23;20020;-87
2023/04/28 07:42:46;;;;;;;17.38;4.95;;;;;;;20.30;57.19;100872.31;6250147;23;20083;-82
2023/04/28 07:45:13;;;;;;;13.18;5.90;;;;;;;20.38;58.48;100864.81;6249876;23;20489;-86
2023/04/28 07:47:38;;;;;;;9.80;5.55;;;;;;;20.53;59.74;100868.03;6250036;23;20012;-87
2023/04/28 07:50:05;;;;;;;12.32;5.75;;;;;;;19.28;64.63;100866.91;6250023;23;20448;-85
2023/04/28 07:52:32;;;;;;;9.60;5.47;;;;;;;20.04;61.82;100871.41;6255139;23;20011;-88
2023/04/28 07:54:58;;;;;;;8.75;5.82;;;;;;;20.21;58.54;100863.66;6254453;23;20008;-87
2023/04/28 07:57:25;;;;;;;10.98;5.55;;;;;;;20.27;59.03;100867.38;6261804;23;20088;-88
2023/04/28 07:59:51;;;;;;;14.40;6.50;;;;;;;19.22;62.75;100863.22;6254619;23;20015;-90
2023/04/28 08:02:19;;;;;;;14.85;6.57;;;;;;;18.74;65.61;100867.19;6259965;23;20046;-87
2023/04/28 08:04:44;;;;;;;11.45;5.93;;;;;;;19.37;63.13;100862.97;6261269;23;20008;-86
2023/04/28 08:07:10;;;;;;;11.05;5.90;;;;;;;20.47;58.16;100862.69;6260283;23;20019;-86
2023/04/28 08:09:36;;;;;;;10.80;5.95;;;;;;;20.90;57.57;100857.34;6259179;23;20446;-83
2023/04/28 08:12:04;;;;;;;12.43;5.75;;;;;;;22.61;51.44;100858.75;6255882;23;20008;-86
2023/04/28 08:14:30;;;;;;;14.18;6.18;;;;;;;23.55;46.37;100868.56;6250302;23;20066;-85
2023/04/28 08:16:59;;;;;;;14.75;5.07;;;;;;;23.50;45.68;100857.63;6198360;23;20047;-83
2023/04/28 08:19:24;;;;;;;12.32;5.63;;;;;;;22.38;47.68;100856.00;6196139;23;20035;-86
2023/04/28 08:21:53;;;;;;;12.63;5.57;;;;;;;21.62;51.25;100846.66;6253339;23;20004;-85
2023/04/28 08:24:19;;;;;;;16.25;5.53;;;;;;;21.76;50.36;100844.63;6246442;23;20103;-85
2023/04/28 08:26:48;;;;;;;14.27;5.40;;;;;;;22.20;47.76;100848.81;6221693;23;20016;-91
2023/04/28 08:29:13;;;;;;;11.70;6.05;;;;;;;22.41;47.76;100852.84;6250928;23;20001;-88
2023/04/28 08:31:39;;;;;;;12.15;5.10;;;;;;;22.60;46.86;100862.53;6255696;23;20012;-87
2023/04/28 08:34:04;;;;;;;18.20;5.55;;;;;;;22.19;47.36;100860.66;6252798;23;20039;-86
2023/04/28 08:36:32;;;;;;;8.93;5.35;;;;;;;22.62;46.60;100858.53;6251194;23;20016;-88
2023/04/28 08:39:07;;;;;;;13.13;5.30;;;;;;;22.61;46.14;100864.16;6254312;23;20012;-87
2023/04/28 08:41:36;;;;;;;15.13;5.07;;;;;;;23.48;44.05;100863.28;6252911;23;20404;-88
2023/04/28 08:44:07;;;;;;;13.63;5.57;;;;;;;22.55;46.09;100851.59;6255384;23;20008;-90
2023/04/28 08:46:37;;;;;;;10.20;5.00;;;;;;;23.04;45.82;100850.34;6228966;23;20019;-86
2023/04/28 08:49:11;;;;;;;13.15;5.38;;;;;;;23.49;44.46;100856.00;6225859;23;20019;-87
2023/04/28 08:51:44;;;;;;;21.42;5.72;;;;;;;23.17;44.57;100850.94;6223181;23;20091;-88
2023/04/28 08:54:14;;;;;;;10.02;5.05;;;;;;;23.46;44.11;100859.19;6249418;23;20023;-87
2023/04/28 08:56:44;;;;;;;10.07;5.68;;;;;;;22.88;44.83;100848.34;6249604;23;20035;-88
2023/04/28 08:59:10;;;;;;;13.55;5.30;;;;;;;22.86;46.00;100847.78;6250653;23;20004;-90
2023/04/28 09:01:36;;;;;;;10.27;5.72;;;;;;;22.86;45.91;100853.19;6224310;23;20015;-90
2023/04/28 09:04:02;;;;;;;18.42;6.18;;;;;;;23.32;43.87;100852.34;6250847;23;20012;-91
2023/04/28 09:06:35;;;;;;;12.48;5.45;;;;;;;22.73;45.89;100848.00;6251297;23;20011;-85
2023/04/28 09:09:27;;;;;;;14.73;5.97;;;;;;;23.02;44.78;100853.31;6250076;23;20008;-89
2023/04/28 09:11:58;;;;;;;14.60;5.78;;;;;;;22.87;45.68;100839.44;6249435;23;20039;-89
2023/04/28 09:14:28;;;;;;;13.48;4.43;;;;;;;22.72;43.64;100852.59;6250198;23;20013;-88
2023/04/28 09:16:54;;;;;;;11.18;5.18;;;;;;;22.77;44.43;100839.19;6250730;23;20066;-86
2023/04/28 09:19:20;;;;;;;11.30;5.35;;;;;;;22.99;43.84;100842.97;6252680;23;20011;-94
2023/04/28 09:21:52;;;;;;;16.77;5.28;;;;;;;22.35;45.26;100851.06;6252781;23;20000;-88
2023/04/28 09:24:41;;;;;;;9.93;5.90;;;;;;;22.02;46.99;100846.97;6251357;23;20035;-89
2023/04/28 09:27:10;;;;;;;9.45;3.72;;;;;;;21.24;45.68;100843.38;6250605;23;20008;-90
2023/04/28 09:29:51;;;;;;;7.80;3.88;;;;;;;21.72;45.80;100853.38;6199372;23;20008;-89
2023/04/28 09:32:22;;;;;;;12.07;4.70;;;;;;;21.63;47.12;100850.19;6251329;23;20012;-90
2023/04/28 09:34:50;;;;;;;11.15;6.05;;;;;;;21.58;50.12;100841.91;6225308;23;20004;-92
2023/04/28 09:37:24;;;;;;;16.10;5.95;;;;;;;22.12;49.03;100841.88;6251957;23;20015;-88
2023/04/28 09:39:51;;;;;;;13.65;6.45;;;;;;;21.91;50.13;100836.97;6202480;23;20435;-87
2023/04/28 09:42:44;;;;;;;14.77;7.70;;;;;;;21.75;53.00;100840.25;6226097;23;20428;-89
2023/04/28 09:45:15;;;;;;;17.33;7.40;;;;;;;21.36;56.14;100835.34;6251968;23;20420;-85
2023/04/28 09:47:47;;;;;;;14.05;7.55;;;;;;;22.17;55.03;100816.06;6258998;23;20016;-86
2023/04/28 09:50:15;;;;;;;16.25;9.32;;;;;;;22.14;56.39;100811.91;6250830;23;20062;-88
2023/04/28 09:52:47;;;;;;;16.52;8.88;;;;;;;21.98;58.11;100824.19;6251159;23;20327;-88
2023/04/28 09:55:14;;;;;;;14.52;8.95;;;;;;;22.04;58.12;100817.06;6250611;23;20439;-86
2023/04/28 09:57:40;;;;;;;19.42;10.23;;;;;;;21.80;60.27;100808.03;6248769;23;20095;-87
2023/04/28 10:00:08;;;;;;;18.23;8.90;;;;;;;21.71;59.46;100820.16;6224857;23;20415;-86
2023/04/28 10:02:36;;;;;;;17.48;9.18;;;;;;;21.59;56.80;100819.31;6250403;23;20008;-89
2023/04/28 10:05:02;;;;;;;13.55;8.38;;;;;;;21.55;57.83;100818.94;6248845;23;20011;-86
2023/04/28 10:07:40;;;;;;;24.25;10.70;;;;;;;21.73;58.06;100815.38;6249499;23;20004;-88
2023/04/28 10:10:08;;;;;;;14.63;9.20;;;;;;;22.09;56.04;100809.94;6249561;23;20023;-88
2023/04/28 10:12:33;;;;;;;21.63;9.82;;;;;;;22.20;55.30;100805.63;6255174;23;20008;-85
2023/04/28 10:14:59;;;;;;;15.20;8.70;;;;;;;21.84;57.29;100811.91;6256615;23;20034;-85
2023/04/28 10:17:27;;;;;;;15.00;8.85;;;;;;;21.90;56.48;100794.84;6250902;23;20320;-89
2023/04/28 10:19:53;;;;;;;14.63;8.75;;;;;;;22.47;54.07;100790.63;6251190;23;20008;-89
2023/04/28 10:22:56;;;;;;;15.25;9.10;;;;;;;21.49;56.71;100803.66;6250226;23;20008;-90
2023/04/28 10:25:34;;;;;;;18.02;9.50;;;;;;;22.17;55.99;100790.69;6252166;23;20464;-90
2023/04/28 10:28:03;;;;;;;18.77;9.63;;;;;;;22.87;53.71;100790.78;6249533;23;20017;-85
2023/04/28 10:30:30;;;;;;;19.05;9.75;;;;;;;22.78;54.06;100784.09;6222913;23;20449;-85
2023/04/28 10:33:05;;;;;;;20.08;9.73;;;;;;;22.83;53.47;100789.63;6252340;23;20000;-89
2023/04/28 10:35:31;;;;;;;16.63;9.68;;;;;;;22.28;55.89;100780.13;6249024;23;20095;-87
2023/04/28 10:38:07;;;;;;;12.93;8.05;;;;;;;22.73;55.68;100783.16;6250310;23;20008;-85
2023/04/28 10:40:35;;;;;;;22.27;10.35;;;;;;;23.14;53.88;100796.50;6251891;23;20095;-90
2023/04/28 10:43:02;;;;;;;16.25;8.75;;;;;;;23.51;53.90;100786.22;6255221;23;19996;-92
2023/04/28 10:45:51;;;;;;;19.00;9.43;;;;;;;23.73;51.77;100787.19;6253336;23;20043;-89
2023/04/28 10:48:32;;;;;;;20.20;9.05;;;;;;;23.67;52.80;100783.56;6231775;23;20043;-89
2023/04/28 10:51:04;;;;;;;19.30;9.20;;;;;;;24.03;51.76;100779.63;6223887;23;20024;-89
2023/04/28 10:53:41;;;;;;;16.23;8.30;;;;;;;23.60;52.87;100773.94;6252833;23;20008;-90
2023/04/28 10:56:08;;;;;;;17.10;9.95;;;;;;;23.81;51.15;100785.97;6227851;23;20382;-87
2023/04/28 10:58:41;;;;;;;18.33;7.93;;;;;;;23.36;51.55;100777.78;6226354;23;20451;-86
2023/04/28 11:01:19;;;;;;;14.23;7.50;;;;;;;23.40;51.13;100777.06;6226490;23;20082;-85
2023/04/28 11:03:59;;;;;;;15.13;7.28;;;;;;;23.85;49.75;100763.59;6256457;23;20011;-88
2023/04/28 11:06:34;;;;;;;14.93;6.68;;;;;;;24.25;47.95;100771.66;6254455;23;20018;-89
2023/04/28 11:09:02;;;;;;;11.70;6.90;;;;;;;24.33;47.96;100759.59;6259559;23;20011;-88
2023/04/28 11:11:38;;;;;;;15.23;7.43;;;;;;;24.16;48.59;100746.84;6257579;23;20095;-91
2023/04/28 11:14:17;;;;;;;15.75;7.05;;;;;;;24.33;47.36;100740.63;6257101;23;20376;-90
2023/04/28 11:16:58;;;;;;;9.90;6.20;;;;;;;24.82;45.58;100756.03;6253296;23;20422;-88
2023/04/28 11:19:26;;;;;;;12.02;6.65;;;;;;;25.13;45.64;100749.09;6251379;23;20008;-90
2023/04/28 11:21:57;;;;;;;15.73;7.22;;;;;;;24.69;47.31;100743.59;6226707;23;20087;-89
2023/04/28 11:24:31;;;;;;;14.43;6.53;;;;;;;24.66;47.00;100740.56;6261827;23;20042;-89